Time;durP1;ratioP1;P1;durP2;ratioP2;P2;SDS_P1;SDS_P2;PMS_P1;PMS_P2;Temp;Humidity;BMP_temperature;BMP_pressure;BME280_temperature;BME280_humidity;BME280_pressure;Samples;Min_cycle;Max_cycle;Signal;HPM_P1;HPM_P2
2021/12/22 00:01:14;;;;;;;19.50;9.30;;;-3.90;99.90;;;;;;4139291;28;20493;-60
2021/12/22 00:03:17;;;;;;;20.15;9.00;;;-3.90;99.90;;;;;;4141960;28;20470;-60
2021/12/22 00:05:28;;;;;;;17.13;9.13;;;-3.90;99.90;;;;;;4139984;28;20120;-59
2021/12/22 00:07:29;;;;;;;18.05;9.73;;;-3.90;99.90;;;;;;4140633;28;20037;-59
2021/12/22 00:09:30;;;;;;;20.83;9.65;;;-3.90;99.90;;;;;;4139552;28;20042;-60
2021/12/22 00:11:31;;;;;;;18.45;9.63;;;-3.90;99.90;;;;;;4140124;28;20041;-59
2021/12/22 00:13:32;;;;;;;19.52;10.30;;;-3.90;99.90;;;;;;4140462;28;20072;-58
2021/12/22 00:15:34;;;;;;;22.88;10.10;;;-3.90;99.90;;;;;;4140309;28;20455;-76
2021/12/22 00:17:35;;;;;;;23.77;10.65;;;-3.90;99.90;;;;;;4140553;28;20030;-58
2021/12/22 00:19:36;;;;;;;21.15;10.05;;;-3.90;99.90;;;;;;4139415;28;20532;-62
2021/12/22 00:21:38;;;;;;;22.90;11.07;;;-3.90;99.90;;;;;;4142077;28;20092;-57
2021/12/22 00:23:39;;;;;;;27.02;11.00;;;-3.90;99.90;;;;;;4142456;28;20037;-61
2021/12/22 00:25:40;;;;;;;21.98;10.75;;;-3.90;99.90;;;;;;4143438;28;20765;-60
2021/12/22 00:27:41;;;;;;;27.10;11.45;;;-3.80;99.90;;;;;;4142538;28;20037;-60
2021/12/22 00:29:46;;;;;;;21.40;9.80;;;-3.80;99.90;;;;;;4143565;28;20042;-58
2021/12/22 00:31:58;;;;;;;23.55;11.13;;;-3.80;99.90;;;;;;4142546;28;20056;-62
2021/12/22 00:34:00;;;;;;;20.58;9.15;;;-3.80;99.90;;;;;;4144391;28;20068;-60
2021/12/22 00:36:01;;;;;;;22.88;9.85;;;-3.80;99.90;;;;;;4142711;28;20091;-59
2021/12/22 00:38:02;;;;;;;17.20;9.32;;;-3.80;99.90;;;;;;4143935;28;20041;-60
2021/12/22 00:40:04;;;;;;;21.27;9.25;;;-3.80;99.90;;;;;;4141944;28;20030;-58
2021/12/22 00:42:06;;;;;;;16.92;8.88;;;-3.70;99.90;;;;;;4143815;28;20470;-59
2021/12/22 00:44:07;;;;;;;20.02;8.95;;;-3.70;99.90;;;;;;4142492;28;20046;-69
2021/12/22 00:46:09;;;;;;;22.98;8.80;;;-3.70;99.90;;;;;;4143221;28;20082;-60
2021/12/22 00:48:11;;;;;;;19.88;8.95;;;-3.80;99.90;;;;;;4142352;28;20046;-57
2021/12/22 00:50:12;;;;;;;18.63;8.32;;;-3.70;99.90;;;;;;4142265;28;20155;-59
2021/12/22 00:52:13;;;;;;;19.75;9.77;;;-3.70;99.90;;;;;;4143167;28;20030;-57
2021/12/22 00:54:15;;;;;;;17.05;9.35;;;-3.70;99.90;;;;;;4142366;28;20041;-60
2021/12/22 00:56:16;;;;;;;18.73;8.07;;;-3.70;99.90;;;;;;4143340;28;20032;-57
2021/12/22 00:58:17;;;;;;;17.02;8.80;;;-3.70;99.90;;;;;;4141867;28;20096;-62
2021/12/22 01:00:21;;;;;;;19.55;8.27;;;-3.70;99.90;;;;;;4142943;28;20050;-57
2021/12/22 01:02:22;;;;;;;19.67;9.13;;;-3.70;99.90;;;;;;4142079;28;20072;-58
2021/12/22 01:04:23;;;;;;;18.48;8.90;;;-3.70;99.90;;;;;;4143741;28;20135;-62
2021/12/22 01:06:24;;;;;;;23.08;9.75;;;-3.70;99.90;;;;;;4141844;28;20022;-58
2021/12/22 01:08:25;;;;;;;19.60;9.52;;;-3.70;99.90;;;;;;4142808;28;20042;-60
2021/12/22 01:10:29;;;;;;;17.30;9.55;;;-3.80;99.90;;;;;;4142083;28;20030;-59
2021/12/22 01:12:30;;;;;;;16.05;8.60;;;-3.80;99.90;;;;;;4143476;28;20089;-59
2021/12/22 01:14:33;;;;;;;18.13;8.40;;;-3.80;99.90;;;;;;4141454;28;20930;-58
2021/12/22 01:16:35;;;;;;;21.00;9.52;;;-3.70;99.90;;;;;;4142424;28;20482;-70
2021/12/22 01:18:37;;;;;;;21.10;9.20;;;-3.70;99.90;;;;;;4142254;28;20301;-59
2021/12/22 01:23:01;;;;;;;22.40;9.07;;;-3.70;99.90;;;;;;4142405;28;20516;-59
2021/12/22 01:25:06;;;;;;;16.92;8.88;;;-3.60;99.90;;;;;;4142399;28;20422;-57
2021/12/22 01:27:09;;;;;;;16.95;8.20;;;-3.70;99.90;;;;;;4141975;28;20080;-59
2021/12/22 01:29:12;;;;;;;19.27;9.23;;;-3.70;99.90;;;;;;4143105;28;20041;-59
2021/12/22 01:31:16;;;;;;;20.05;9.70;;;-3.70;99.90;;;;;;4142127;28;20038;-67
2021/12/22 01:33:17;;;;;;;14.35;7.70;;;-3.70;99.90;;;;;;4141415;28;20022;-61
2021/12/22 01:35:23;;;;;;;18.08;9.05;;;-3.70;99.90;;;;;;4143165;28;20119;-62
2021/12/22 01:37:24;;;;;;;18.92;8.77;;;-3.80;99.90;;;;;;4141887;28;20037;-58
2021/12/22 01:39:25;;;;;;;16.98;8.18;;;-3.70;99.90;;;;;;4142547;28;20038;-60
2021/12/22 01:41:26;;;;;;;17.92;8.52;;;-3.80;99.90;;;;;;4141559;28;20025;-58
2021/12/22 01:43:27;;;;;;;28.30;10.18;;;-3.80;99.90;;;;;;4142987;28;20038;-58
2021/12/22 01:45:54;;;;;;;19.30;8.05;;;-3.80;99.90;;;;;;4141148;28;20116;-56
2021/12/22 01:50:33;;;;;;;17.63;9.63;;;-3.80;99.90;;;;;;4141632;28;20089;-58
2021/12/22 01:52:34;;;;;;;16.45;8.43;;;-3.80;99.90;;;;;;4141782;28;20445;-62
2021/12/22 01:54:39;;;;;;;25.75;10.45;;;-3.80;99.90;;;;;;4141262;28;20061;-63
2021/12/22 01:56:43;;;;;;;26.92;12.82;;;-3.80;99.90;;;;;;4141941;28;20026;-59
2021/12/22 01:58:46;;;;;;;20.95;9.98;;;-3.80;99.90;;;;;;4140417;28;20072;-58
2021/12/22 02:00:47;;;;;;;23.98;10.45;;;-3.80;99.90;;;;;;4142401;28;20099;-61
2021/12/22 02:02:49;;;;;;;18.40;8.93;;;-3.80;99.90;;;;;;4141039;28;20540;-60
2021/12/22 02:04:51;;;;;;;20.80;9.15;;;-3.80;99.90;;;;;;4142888;28;20038;-60
2021/12/22 02:06:53;;;;;;;20.20;10.40;;;-3.80;99.90;;;;;;4140831;28;20080;-58
2021/12/22 02:08:55;;;;;;;20.00;8.60;;;-3.80;99.90;;;;;;4142517;28;20048;-60
2021/12/22 02:10:56;;;;;;;25.55;10.82;;;-3.90;99.90;;;;;;4141223;28;20088;-60
2021/12/22 02:12:59;;;;;;;26.48;11.43;;;-3.90;99.90;;;;;;4142444;28;20072;-62
2021/12/22 02:15:02;;;;;;;28.40;13.48;;;-3.90;99.90;;;;;;4141068;28;20107;-54
2021/12/22 02:17:07;;;;;;;29.02;13.27;;;-3.90;99.90;;;;;;4142065;28;20090;-73
2021/12/22 02:19:10;;;;;;;31.33;13.75;;;-3.90;99.90;;;;;;4140710;28;20087;-62
2021/12/22 02:21:11;;;;;;;30.65;14.13;;;-3.90;99.90;;;;;;4141683;28;20018;-58
2021/12/22 02:23:12;;;;;;;32.95;13.13;;;-3.90;99.90;;;;;;4141613;28;20754;-63
2021/12/22 02:25:19;;;;;;;41.47;15.30;;;-3.90;99.90;;;;;;4140928;28;20091;-58
2021/12/22 02:27:29;;;;;;;25.90;11.43;;;-3.90;99.90;;;;;;4141719;28;20099;-61
2021/12/22 02:29:38;;;;;;;20.52;10.48;;;-3.90;99.90;;;;;;4141458;28;20433;-60
2021/12/22 02:31:44;;;;;;;26.92;10.77;;;-3.90;99.90;;;;;;4141505;28;20536;-57
2021/12/22 02:33:49;;;;;;;26.75;10.77;;;-3.90;99.90;;;;;;4141254;28;20026;-58
2021/12/22 02:38:12;;;;;;;26.15;10.27;;;-3.90;99.90;;;;;;4139682;28;20124;-60
2021/12/22 02:40:17;;;;;;;21.98;10.07;;;-3.90;99.90;;;;;;4141757;28;20054;-67
2021/12/22 02:42:22;;;;;;;17.58;8.95;;;-3.90;99.90;;;;;;4140461;28;20108;-61
2021/12/22 02:44:23;;;;;;;19.98;9.77;;;-3.90;99.90;;;;;;4141312;28;20096;-69
2021/12/22 02:46:27;;;;;;;17.88;8.95;;;-3.90;99.90;;;;;;4140095;28;20158;-61
2021/12/22 02:48:32;;;;;;;21.13;8.85;;;-3.80;99.90;;;;;;4141508;28;20105;-68
2021/12/22 02:50:36;;;;;;;18.00;8.98;;;-3.80;99.90;;;;;;4139842;28;20502;-58
2021/12/22 02:53:28;;;;;;;20.80;10.35;;;-3.70;99.90;;;;;;4141736;28;20084;-65
2021/12/22 02:55:01;;;;;;;18.95;8.40;;;-3.80;99.90;;;;;;4136598;28;20041;-60
2021/12/22 02:57:18;;;;;;;13.93;7.18;;;-3.70;99.90;;;;;;4141702;28;20734;-66
2021/12/22 03:05:56;;;;;;;16.73;6.53;;;-3.70;99.90;;;;;;4141563;28;20124;-55
2021/12/22 03:07:57;;;;;;;11.05;5.70;;;-3.70;99.90;;;;;;4140366;28;20022;-58
2021/12/22 03:10:08;;;;;;;13.35;6.97;;;-3.80;99.90;;;;;;4141554;28;20053;-62
2021/12/22 03:12:13;;;;;;;11.38;5.15;;;-3.80;99.90;;;;;;4139980;28;20026;-62
2021/12/22 03:14:15;;;;;;;10.23;5.38;;;-3.90;99.90;;;;;;4141068;28;20042;-58
2021/12/22 03:16:18;;;;;;;11.70;5.03;;;-4.00;99.90;;;;;;4140235;28;20106;-61
2021/12/22 03:18:19;;;;;;;10.40;5.47;;;-4.00;99.90;;;;;;4141552;28;20081;-57
2021/12/22 03:20:21;;;;;;;11.15;5.47;;;-4.00;99.90;;;;;;4140154;28;20031;-58
2021/12/22 03:22:23;;;;;;;10.32;5.35;;;-4.10;99.90;;;;;;4141561;28;20083;-58
2021/12/22 03:24:24;;;;;;;20.02;4.63;;;-4.10;99.90;;;;;;4139661;28;20050;-59
2021/12/22 03:26:26;;;;;;;10.05;4.40;;;-4.10;99.90;;;;;;4141276;28;20084;-58
2021/12/22 03:28:27;;;;;;;12.55;5.38;;;-4.20;99.90;;;;;;4139812;28;20083;-56
2021/12/22 03:30:28;;;;;;;11.65;5.07;;;-4.20;99.90;;;;;;4140529;28;20106;-57
2021/12/22 03:32:29;;;;;;;12.20;4.90;;;-4.20;99.90;;;;;;4140410;28;20038;-63
2021/12/22 03:34:30;;;;;;;12.13;4.65;;;-4.20;99.90;;;;;;4140672;28;20046;-58
2021/12/22 03:36:32;;;;;;;9.82;4.45;;;-4.10;99.90;;;;;;4141283;28;20506;-60
2021/12/22 03:38:35;;;;;;;10.63;4.65;;;-4.10;99.90;;;;;;4139539;28;20076;-60
2021/12/22 03:40:36;;;;;;;11.05;4.20;;;-4.10;99.90;;;;;;4141666;28;20054;-54
2021/12/22 03:42:37;;;;;;;8.13;3.60;;;-4.10;99.90;;;;;;4139281;28;20038;-54
2021/12/22 03:44:39;;;;;;;8.55;4.03;;;-4.10;99.90;;;;;;4140888;28;20445;-58
2021/12/22 03:46:41;;;;;;;9.80;5.13;;;-4.10;99.90;;;;;;4140323;28;20038;-55
2021/12/22 03:48:42;;;;;;;11.65;4.88;;;-4.10;99.90;;;;;;4141216;28;20034;-55
2021/12/22 03:50:45;;;;;;;10.77;4.80;;;-4.10;99.90;;;;;;4139190;28;20088;-63
2021/12/22 03:52:47;;;;;;;6.32;3.10;;;-4.10;99.90;;;;;;4140944;28;20600;-57
2021/12/22 03:54:54;;;;;;;7.28;3.60;;;-4.20;99.90;;;;;;4139430;28;20030;-58
2021/12/22 03:56:55;;;;;;;5.65;2.95;;;-4.20;99.90;;;;;;4142603;28;20075;-56
2021/12/22 03:58:56;;;;;;;6.72;3.20;;;-4.20;99.90;;;;;;4142783;28;20096;-57
2021/12/22 04:00:58;;;;;;;6.32;3.47;;;-4.10;99.90;;;;;;4143561;28;20041;-56
2021/12/22 04:03:00;;;;;;;6.70;3.15;;;-4.10;99.90;;;;;;4143232;28;20092;-55
2021/12/22 04:05:03;;;;;;;4.53;2.75;;;-4.20;99.90;;;;;;4142900;28;20054;-57
2021/12/22 04:07:05;;;;;;;6.93;3.38;;;-4.20;99.90;;;;;;4143590;28;20038;-63
2021/12/22 04:09:06;;;;;;;7.28;3.08;;;-4.20;99.90;;;;;;4143258;28;20562;-66
2021/12/22 04:11:07;;;;;;;5.72;3.13;;;-4.10;99.90;;;;;;4143694;28;20096;-53
2021/12/22 04:13:09;;;;;;;5.82;2.90;;;-4.20;99.90;;;;;;4143081;28;20104;-58
2021/12/22 04:15:10;;;;;;;5.60;2.88;;;-4.30;99.90;;;;;;4144101;28;20030;-57
2021/12/22 04:17:11;;;;;;;6.38;2.97;;;-4.30;99.90;;;;;;4142903;28;20584;-60
2021/12/22 04:19:12;;;;;;;4.45;2.85;;;-4.20;99.90;;;;;;4143907;28;20088;-67
2021/12/22 04:21:13;;;;;;;4.75;3.20;;;-4.20;99.90;;;;;;4142464;28;20046;-64
2021/12/22 04:23:16;;;;;;;7.10;3.63;;;-4.20;99.90;;;;;;4144071;28;20635;-63
2021/12/22 04:25:20;;;;;;;5.68;3.08;;;-4.20;99.90;;;;;;4142203;28;20050;-57
2021/12/22 04:27:22;;;;;;;7.30;3.50;;;-4.10;99.90;;;;;;4143346;28;20088;-60
2021/12/22 04:29:23;;;;;;;4.68;2.50;;;-4.10;99.90;;;;;;4142203;28;20108;-59
2021/12/22 04:31:24;;;;;;;4.60;2.75;;;-4.00;99.90;;;;;;4143468;28;20363;-57
2021/12/22 04:33:25;;;;;;;5.25;3.25;;;-4.00;99.90;;;;;;4142344;28;20092;-61
2021/12/22 04:35:27;;;;;;;6.45;3.17;;;-4.00;99.90;;;;;;4143678;28;20088;-57
2021/12/22 04:37:29;;;;;;;6.72;3.45;;;-4.00;99.90;;;;;;4143233;28;20038;-58
2021/12/22 04:39:32;;;;;;;4.38;2.47;;;-4.00;99.90;;;;;;4142811;28;20379;-58
2021/12/22 04:41:34;;;;;;;7.50;2.83;;;-4.00;99.90;;;;;;4142511;28;20069;-58
2021/12/22 04:43:35;;;;;;;5.47;2.63;;;-4.00;99.90;;;;;;4142142;28;20029;-63
2021/12/22 04:45:36;;;;;;;3.95;2.40;;;-4.00;99.90;;;;;;4143072;28;20108;-57
2021/12/22 04:47:38;;;;;;;6.72;2.75;;;-4.00;99.90;;;;;;4142485;28;20161;-61
2021/12/22 04:49:40;;;;;;;7.35;2.47;;;-3.90;99.90;;;;;;4143131;28;20453;-58
2021/12/22 04:51:48;;;;;;;6.03;2.63;;;-4.00;99.90;;;;;;4142246;28;20072;-61
2021/12/22 04:53:56;;;;;;;4.25;2.70;;;-4.00;99.90;;;;;;4143382;28;20560;-61
2021/12/22 04:55:57;;;;;;;6.35;2.83;;;-3.90;99.90;;;;;;4141561;28;20041;-56
2021/12/22 04:58:00;;;;;;;6.15;2.90;;;-3.90;99.90;;;;;;4142964;28;20034;-62
2021/12/22 05:00:03;;;;;;;10.40;3.15;;;-3.90;99.90;;;;;;4141118;28;20046;-60
2021/12/22 05:02:04;;;;;;;8.00;2.83;;;-3.80;99.90;;;;;;4142251;28;20056;-66
2021/12/22 05:04:05;;;;;;;5.97;2.90;;;-3.80;99.90;;;;;;4141905;28;20525;-62
2021/12/22 05:06:07;;;;;;;7.40;3.40;;;-3.80;99.90;;;;;;4143635;28;20107;-59
2021/12/22 05:08:08;;;;;;;15.65;5.88;;;-3.80;99.90;;;;;;4140746;28;20026;-58
2021/12/22 05:10:10;;;;;;;7.85;3.70;;;-3.80;99.90;;;;;;4142290;28;20052;-59
2021/12/22 05:12:11;;;;;;;9.23;3.25;;;-3.90;99.90;;;;;;4141759;28;20076;-56
2021/12/22 05:14:12;;;;;;;5.68;2.40;;;-3.90;99.90;;;;;;4141420;28;20042;-60
2021/12/22 05:16:18;;;;;;;3.88;2.30;;;-3.90;99.90;;;;;;4141709;28;20092;-61
2021/12/22 05:18:47;;;;;;;4.68;2.30;;;-4.00;99.90;;;;;;4140578;28;20069;-58
2021/12/22 05:20:46;;;;;;;5.45;2.47;;;-4.00;99.90;;;;;;4125828;28;20022;-59
2021/12/22 05:22:49;;;;;;;5.88;3.60;;;-4.00;99.90;;;;;;4128703;28;20088;-58
2021/12/22 05:24:51;;;;;;;4.70;2.65;;;-4.00;99.90;;;;;;4142039;28;20501;-58
2021/12/22 05:26:52;;;;;;;5.35;3.35;;;-4.00;99.90;;;;;;4141685;28;20084;-59
2021/12/22 05:28:54;;;;;;;6.07;2.65;;;-4.00;99.90;;;;;;4142111;28;20433;-60
2021/12/22 05:30:55;;;;;;;4.97;3.10;;;-4.00;99.90;;;;;;4140977;28;20046;-66
2021/12/22 05:32:57;;;;;;;4.97;3.00;;;-4.00;99.90;;;;;;4140881;28;20034;-59
2021/12/22 05:35:05;;;;;;;6.18;2.88;;;-4.00;99.90;;;;;;4140861;28;20054;-59
2021/12/22 05:37:06;;;;;;;6.40;2.72;;;-4.00;99.90;;;;;;4141760;28;20030;-66
2021/12/22 05:39:07;;;;;;;5.40;2.35;;;-4.10;99.90;;;;;;4140531;28;20034;-58
2021/12/22 05:41:09;;;;;;;4.97;2.55;;;-4.10;99.90;;;;;;4142331;28;20034;-59
2021/12/22 05:43:11;;;;;;;5.15;2.83;;;-4.10;99.90;;;;;;4140991;28;20180;-60
2021/12/22 05:45:12;;;;;;;6.20;2.70;;;-4.10;99.90;;;;;;4141601;28;20116;-58
2021/12/22 05:47:13;;;;;;;12.00;2.50;;;-4.10;99.90;;;;;;4139945;28;20509;-57
2021/12/22 05:49:15;;;;;;;6.93;3.05;;;-4.10;99.90;;;;;;4141735;28;20096;-59
2021/12/22 05:51:16;;;;;;;5.50;3.22;;;-4.20;99.90;;;;;;4140410;28;20034;-58
2021/12/22 05:53:17;;;;;;;3.95;2.40;;;-4.10;99.90;;;;;;4140966;28;20560;-61
2021/12/22 05:55:18;;;;;;;3.92;2.45;;;-4.10;99.90;;;;;;4140774;28;20422;-59
2021/12/22 05:57:20;;;;;;;4.45;2.60;;;-4.10;99.90;;;;;;4140584;28;20080;-56
2021/12/22 05:59:21;;;;;;;4.90;2.67;;;-4.20;99.90;;;;;;4141208;28;20103;-60
2021/12/22 06:01:22;;;;;;;5.95;3.08;;;-4.20;99.90;;;;;;4140873;28;20426;-57
2021/12/22 06:03:24;;;;;;;6.38;2.60;;;-4.30;99.90;;;;;;4141196;28;20033;-54
2021/12/22 06:05:25;;;;;;;9.50;4.55;;;-4.30;99.90;;;;;;4140683;28;20061;-59
2021/12/22 06:07:26;;;;;;;9.77;5.05;;;-4.30;99.90;;;;;;4141385;28;20073;-65
2021/12/22 06:09:27;;;;;;;16.88;6.43;;;-4.20;99.90;;;;;;4140288;28;20072;-58
2021/12/22 06:11:28;;;;;;;13.63;7.38;;;-4.20;99.90;;;;;;4141526;28;20038;-57
2021/12/22 06:13:30;;;;;;;10.15;5.72;;;-4.20;99.90;;;;;;4140057;28;20111;-59
2021/12/22 06:15:34;;;;;;;13.98;6.68;;;-4.20;99.90;;;;;;4134653;28;20033;-60
2021/12/22 06:17:35;;;;;;;10.60;6.15;;;-4.20;99.90;;;;;;4139787;28;20038;-60
2021/12/22 06:19:36;;;;;;;11.95;5.72;;;-4.20;99.90;;;;;;4136670;28;20894;-61
2021/12/22 06:21:38;;;;;;;10.13;4.80;;;-4.20;99.90;;;;;;4133136;28;20101;-60
2021/12/22 06:23:40;;;;;;;13.15;5.78;;;-4.20;99.90;;;;;;4125325;28;20438;-58
2021/12/22 06:25:41;;;;;;;14.73;6.88;;;-4.20;99.90;;;;;;4135748;28;20069;-57
2021/12/22 06:27:42;;;;;;;13.45;5.82;;;-4.20;99.90;;;;;;4140187;28;20045;-69
2021/12/22 06:29:44;;;;;;;43.22;18.67;;;-4.20;99.90;;;;;;4140361;28;20478;-58
2021/12/22 06:31:45;;;;;;;62.92;24.95;;;-4.20;99.90;;;;;;4140072;28;20034;-60
2021/12/22 06:33:46;;;;;;;45.95;18.83;;;-4.20;99.90;;;;;;4141452;28;20065;-58
2021/12/22 06:35:48;;;;;;;34.33;14.80;;;-4.10;99.90;;;;;;4139811;28;20081;-58
2021/12/22 06:37:50;;;;;;;41.22;17.23;;;-4.10;99.90;;;;;;4141488;28;20037;-58
2021/12/22 06:39:52;;;;;;;52.80;21.38;;;-4.10;99.90;;;;;;4140385;28;20034;-58
2021/12/22 06:41:53;;;;;;;40.15;15.15;;;-4.20;99.90;;;;;;4141185;28;20046;-59
2021/12/22 06:43:54;;;;;;;86.90;34.55;;;-4.10;99.90;;;;;;4131941;28;20160;-61
2021/12/22 06:45:55;;;;;;;33.67;17.30;;;-4.10;99.90;;;;;;4157060;28;20107;-61
2021/12/22 06:47:56;;;;;;;31.98;16.23;;;-4.10;99.90;;;;;;4155767;28;20029;-59
2021/12/22 06:49:58;;;;;;;37.50;19.27;;;-4.10;99.90;;;;;;4157115;28;20468;-59
2021/12/22 06:51:59;;;;;;;23.88;13.98;;;-4.10;99.90;;;;;;4154164;28;20050;-63
2021/12/22 06:54:00;;;;;;;36.85;16.27;;;-4.10;99.90;;;;;;4140351;28;20549;-62
2021/12/22 06:56:02;;;;;;;25.23;11.43;;;-4.10;99.90;;;;;;4140217;28;20049;-62
2021/12/22 06:58:03;;;;;;;26.30;11.20;;;-4.10;99.90;;;;;;4138902;28;20406;-62
2021/12/22 07:00:07;;;;;;;18.85;8.27;;;-4.10;99.90;;;;;;4140139;28;20049;-61
2021/12/22 07:02:08;;;;;;;14.15;7.55;;;-4.10;99.90;;;;;;4140263;28;20077;-61
2021/12/22 07:04:10;;;;;;;16.35;8.70;;;-4.10;99.90;;;;;;4140812;28;20060;-59
2021/12/22 07:06:11;;;;;;;19.90;9.02;;;-4.00;99.90;;;;;;4139889;28;20116;-60
2021/12/22 07:08:12;;;;;;;24.23;10.35;;;-3.90;99.90;;;;;;4140542;28;20096;-60
2021/12/22 07:10:13;;;;;;;34.03;15.32;;;-3.80;99.90;;;;;;4140272;28;20077;-61
2021/12/22 07:12:14;;;;;;;22.75;10.60;;;-3.60;99.90;;;;;;4140708;28;20449;-60
2021/12/22 07:14:15;;;;;;;13.07;7.72;;;-3.40;99.90;;;;;;4140379;28;20076;-58
2021/12/22 07:16:17;;;;;;;11.90;7.00;;;-3.20;99.90;;;;;;4140576;28;20033;-60
2021/12/22 07:18:18;;;;;;;11.90;6.60;;;-3.00;99.90;;;;;;4139428;28;20041;-61
2021/12/22 07:20:19;;;;;;;17.63;7.87;;;-2.90;99.90;;;;;;4141256;28;20050;-64
2021/12/22 07:22:21;;;;;;;12.23;6.80;;;-2.90;99.90;;;;;;4139336;28;20276;-60
2021/12/22 07:24:22;;;;;;;14.32;7.57;;;-2.90;99.90;;;;;;4140915;28;20653;-62
2021/12/22 07:26:23;;;;;;;31.97;14.37;;;-2.90;99.90;;;;;;4138371;28;20096;-61
2021/12/22 07:28:25;;;;;;;40.20;17.38;;;-2.80;99.90;;;;;;4140390;28;20271;-63
2021/12/22 07:30:26;;;;;;;20.13;9.80;;;-2.90;99.90;;;;;;4139910;28;20486;-61
2021/12/22 07:32:27;;;;;;;18.00;8.53;;;-2.90;99.90;;;;;;4144852;28;20378;-65
2021/12/22 07:34:40;;;;;;;20.97;10.77;;;-3.00;99.90;;;;;;4145807;28;20255;-68
2021/12/22 07:36:49;;;;;;;17.50;10.03;;;-3.10;99.90;;;;;;4145768;28;20809;-66
2021/12/22 07:39:02;;;;;;;19.33;9.80;;;-3.20;99.90;;;;;;4146103;28;20305;-63
2021/12/22 07:41:04;;;;;;;14.87;7.50;;;-3.20;99.90;;;;;;4145302;28;20264;-62
2021/12/22 07:43:06;;;;;;;22.50;9.53;;;-3.10;99.90;;;;;;4145602;28;20317;-60
2021/12/22 07:45:07;;;;;;;17.13;7.78;;;-3.00;99.90;;;;;;4144878;28;20279;-59
2021/12/22 07:47:09;;;;;;;14.60;7.60;;;-3.00;99.90;;;;;;4145816;28;20049;-60
2021/12/22 07:49:10;;;;;;;18.53;9.43;;;-2.90;99.90;;;;;;4144450;28;20275;-61
2021/12/22 07:51:11;;;;;;;27.60;14.30;;;-2.90;99.90;;;;;;4145537;28;20373;-61
2021/12/22 07:53:12;;;;;;;24.03;12.53;;;-2.90;99.90;;;;;;4144377;28;20275;-62
2021/12/22 07:55:13;;;;;;;26.53;14.13;;;-2.80;99.90;;;;;;4145809;28;20276;-65
2021/12/22 07:57:14;;;;;;;17.33;9.97;;;-2.70;99.90;;;;;;4144840;28;20283;-61
2021/12/22 07:59:15;;;;;;;17.57;10.07;;;-2.60;99.90;;;;;;4145696;28;20333;-61
2021/12/22 08:01:16;;;;;;;14.77;8.57;;;-2.40;99.90;;;;;;4144329;28;20325;-62
2021/12/22 08:03:18;;;;;;;15.33;8.60;;;-2.20;99.90;;;;;;4145855;28;20434;-61
2021/12/22 08:05:19;;;;;;;16.17;8.57;;;-2.00;99.90;;;;;;4144970;28;20279;-67
2021/12/22 08:07:20;;;;;;;15.33;6.97;;;-1.70;99.90;;;;;;4145370;28;20341;-60
2021/12/22 08:09:25;;;;;;;15.47;6.70;;;-1.40;99.90;;;;;;4145104;28;20850;-61
2021/12/22 08:11:27;;;;;;;12.77;6.47;;;-1.40;99.90;;;;;;4145202;28;20279;-62
2021/12/22 08:13:28;;;;;;;15.77;7.20;;;-1.10;99.90;;;;;;4145425;28;20267;-60
2021/12/22 08:15:29;;;;;;;18.67;8.87;;;-0.90;99.90;;;;;;4144516;28;20287;-61
2021/12/22 08:17:32;;;;;;;26.10;11.73;;;-0.90;99.90;;;;;;4145465;28;20357;-59
2021/12/22 08:19:34;;;;;;;42.13;20.73;;;-0.90;99.90;;;;;;4144249;28;20354;-65
2021/12/22 08:21:35;;;;;;;29.93;14.70;;;-1.10;99.90;;;;;;4145827;28;20409;-60
2021/12/22 08:23:36;;;;;;;35.57;19.07;;;-1.30;99.90;;;;;;4144358;28;20271;-65
2021/12/22 08:25:38;;;;;;;19.70;11.40;;;-1.50;99.90;;;;;;4145528;28;20283;-60
2021/12/22 08:27:40;;;;;;;15.80;8.80;;;-1.50;99.90;;;;;;4144502;28;20282;-61
2021/12/22 08:29:43;;;;;;;17.10;7.70;;;-1.40;99.90;;;;;;4146160;28;20279;-60
2021/12/22 08:31:45;;;;;;;20.03;9.20;;;-1.30;99.90;;;;;;4144253;28;20327;-61
2021/12/22 08:33:47;;;;;;;19.03;9.13;;;-1.30;99.90;;;;;;4145220;28;20333;-63
2021/12/22 08:40:30;;;;;;;15.70;7.07;;;-1.30;99.90;;;;;;4144210;28;20345;-60
2021/12/22 08:42:31;;;;;;;18.03;9.47;;;-1.40;99.90;;;;;;4144238;28;20349;-59
2021/12/22 08:44:33;;;;;;;14.40;7.97;;;-1.50;99.90;;;;;;4141157;28;20367;-62
2021/12/22 08:46:37;;;;;;;12.13;7.33;;;-1.50;99.90;;;;;;4142831;28;20292;-59
2021/12/22 08:48:38;;;;;;;12.77;5.93;;;-1.50;99.90;;;;;;4141068;28;20316;-60
2021/12/22 08:50:39;;;;;;;15.23;7.87;;;-1.40;99.90;;;;;;4142566;28;21166;-61
2021/12/22 08:52:40;;;;;;;12.00;6.57;;;-1.40;99.90;;;;;;4141770;28;20338;-61
2021/12/22 08:54:41;;;;;;;7.50;4.57;;;-1.50;99.90;;;;;;4141841;28;20322;-60
2021/12/22 08:56:44;;;;;;;5.53;3.70;;;-1.50;99.90;;;;;;4142366;28;20260;-60
2021/12/22 08:58:45;;;;;;;8.03;4.90;;;-1.60;99.90;;;;;;4140915;28;20330;-60
2021/12/22 09:00:46;;;;;;;7.20;3.30;;;-1.70;99.90;;;;;;4142481;28;20771;-61
2021/12/22 09:02:49;;;;;;;6.43;3.40;;;-1.70;99.90;;;;;;4141262;28;20334;-61
2021/12/22 09:04:50;;;;;;;8.73;5.63;;;-1.70;99.90;;;;;;4142268;28;20276;-61
2021/12/22 09:06:52;;;;;;;9.77;4.43;;;-1.60;99.90;;;;;;4141703;28;20837;-59
2021/12/22 09:08:54;;;;;;;10.87;4.47;;;-1.60;99.90;;;;;;4142175;28;20341;-60
2021/12/22 09:10:55;;;;;;;11.07;5.57;;;-1.60;99.90;;;;;;4141406;28;20337;-61
2021/12/22 09:12:56;;;;;;;7.37;3.67;;;-1.60;99.90;;;;;;4142238;28;20276;-61
2021/12/22 09:14:57;;;;;;;8.13;3.73;;;-1.70;99.90;;;;;;4141011;28;20535;-63
2021/12/22 09:16:59;;;;;;;9.20;3.90;;;-1.60;99.90;;;;;;4140655;28;20279;-61
2021/12/22 09:19:00;;;;;;;7.80;3.70;;;-1.80;99.90;;;;;;4140882;28;20687;-63
2021/12/22 09:21:03;;;;;;;7.37;3.80;;;-1.80;99.90;;;;;;4142376;28;20271;-61
2021/12/22 09:23:04;;;;;;;8.00;3.50;;;-1.80;99.90;;;;;;4141078;28;20321;-59
2021/12/22 09:25:06;;;;;;;11.17;5.47;;;-1.70;99.90;;;;;;4141727;28;21048;-61
2021/12/22 09:27:07;;;;;;;8.83;4.50;;;-1.80;99.90;;;;;;4141882;28;20305;-61
2021/12/22 09:29:08;;;;;;;8.27;4.07;;;-1.80;99.90;;;;;;4141629;28;20271;-61
2021/12/22 09:31:09;;;;;;;8.07;3.33;;;-1.80;99.90;;;;;;4141955;28;20329;-60
2021/12/22 09:33:14;;;;;;;8.33;3.00;;;-1.90;99.90;;;;;;4140921;28;20260;-60
2021/12/22 09:35:15;;;;;;;7.43;3.50;;;-1.90;99.90;;;;;;4142529;28;20285;-65
2021/12/22 09:37:18;;;;;;;6.17;3.53;;;-2.00;99.90;;;;;;4141106;28;20337;-59
2021/12/22 09:39:19;;;;;;;5.43;2.57;;;-1.90;99.90;;;;;;4142173;28;20283;-62
2021/12/22 09:41:20;;;;;;;6.13;2.83;;;-1.90;99.90;;;;;;4140965;28;20329;-63
2021/12/22 09:43:21;;;;;;;6.10;3.10;;;-1.90;99.90;;;;;;4142047;28;20728;-62
2021/12/22 09:45:25;;;;;;;6.87;2.80;;;-1.80;99.90;;;;;;4140806;28;20279;-61
2021/12/22 09:47:31;;;;;;;6.77;2.83;;;-1.90;99.90;;;;;;4142124;28;20327;-65
2021/12/22 09:54:04;;;;;;;4.67;2.77;;;-1.90;99.90;;;;;;4140452;28;20029;-58
2021/12/22 09:56:07;;;;;;;10.40;3.67;;;-1.80;99.90;;;;;;4141509;28;20314;-60
2021/12/22 09:58:09;;;;;;;3.80;2.20;;;-1.70;99.90;;;;;;4140374;28;20314;-61
2021/12/22 10:00:11;;;;;;;6.37;2.80;;;-1.80;99.80;;;;;;4141299;28;20275;-61
2021/12/22 10:02:14;;;;;;;5.70;2.60;;;-1.80;99.90;;;;;;4139762;28;20330;-63
2021/12/22 10:04:16;;;;;;;6.63;3.13;;;-1.90;99.60;;;;;;4141602;28;20849;-63
2021/12/22 10:06:17;;;;;;;4.67;2.77;;;-1.90;99.90;;;;;;4141172;28;20291;-62
2021/12/22 10:08:20;;;;;;;5.13;2.90;;;-2.00;99.80;;;;;;4140846;28;20667;-61
2021/12/22 10:10:26;;;;;;;7.97;2.80;;;-2.10;99.60;;;;;;4140907;28;20260;-63
2021/12/22 10:12:28;;;;;;;4.03;2.33;;;-2.10;99.90;;;;;;4140326;28;20263;-62
2021/12/22 10:14:30;;;;;;;6.70;2.83;;;-2.10;99.90;;;;;;4140671;28;20279;-61
2021/12/22 10:16:31;;;;;;;5.53;2.93;;;-2.20;98.80;;;;;;4140455;28;20330;-63
2021/12/22 10:18:32;;;;;;;6.87;3.07;;;-2.20;99.90;;;;;;4141453;28;20359;-65
2021/12/22 10:20:34;;;;;;;4.67;2.40;;;-2.30;98.90;;;;;;4139502;28;20709;-61
2021/12/22 10:22:44;;;;;;;4.30;2.43;;;-2.30;99.00;;;;;;4141341;28;20280;-59
2021/12/22 10:24:46;;;;;;;4.25;2.45;;;-2.20;99.50;;;;;;4140558;28;20338;-60
2021/12/22 10:27:01;;;;;;;4.93;2.23;;;-2.20;99.30;;;;;;4140052;28;20045;-59
2021/12/22 10:29:07;;;;;;;5.70;2.10;;;-2.20;98.40;;;;;;4138568;28;20287;-60
2021/12/22 10:31:09;;;;;;;3.77;2.10;;;-2.20;99.00;;;;;;4141557;28;20301;-60
2021/12/22 10:33:19;;;;;;;4.43;2.13;;;-2.20;99.20;;;;;;4139989;28;20690;-65
2021/12/22 10:35:32;;;;;;;3.40;1.73;;;-2.20;99.10;;;;;;4141421;28;20322;-62
2021/12/22 10:37:44;;;;;;;3.67;1.90;;;-2.30;97.80;;;;;;4139679;28;20087;-60
2021/12/22 10:39:45;;;;;;;4.83;2.10;;;-2.40;99.10;;;;;;4140834;28;20275;-63
2021/12/22 10:41:46;;;;;;;4.70;2.40;;;-2.40;99.20;;;;;;4140022;28;20310;-61
2021/12/22 10:43:50;;;;;;;6.00;2.30;;;-2.50;99.10;;;;;;4141443;28;20365;-60
2021/12/22 10:45:56;;;;;;;4.20;2.03;;;-2.60;98.80;;;;;;4139752;28;20740;-62
2021/12/22 10:50:24;;;;;;;5.37;2.20;;;-2.60;99.20;;;;;;4139929;28;20280;-60
2021/12/22 10:52:26;;;;;;;5.37;2.40;;;-2.60;99.00;;;;;;4140904;28;20271;-62
2021/12/22 10:54:34;;;;;;;4.63;2.70;;;-2.60;99.30;;;;;;4139687;28;20785;-60
2021/12/22 10:56:39;;;;;;;3.58;2.17;;;-2.50;99.10;;;;;;4141562;28;20897;-61